Time;durP1;ratioP1;P1;durP2;ratioP2;P2;SDS_P1;SDS_P2;PMS_P1;PMS_P2;Temp;Humidity;BMP_temperature;BMP_pressure;BME280_temperature;BME280_humidity;BME280_pressure;Samples;Min_cycle;Max_cycle;Signal;HPM_P1;HPM_P2
2022/10/24 05:19:14;;;;;;;7.63;1.90;;;16.70;82.80;;;;;;5506413;23;20052;-73
2022/10/24 05:21:42;;;;;;;7.38;1.70;;;16.80;82.90;;;;;;4898385;29;20053;-75
2022/10/24 05:24:08;;;;;;;18.48;2.17;;;16.80;82.60;;;;;;4885468;29;20160;-72
2022/10/24 05:26:34;;;;;;;9.13;1.73;;;16.80;82.80;;;;;;4902071;29;20049;-72
2022/10/24 05:28:59;;;;;;;12.75;1.80;;;16.80;82.90;;;;;;4901917;29;20120;-72
2022/10/24 05:31:25;;;;;;;12.70;2.35;;;16.80;83.10;;;;;;4883548;29;20085;-73
2022/10/24 05:33:51;;;;;;;10.80;2.13;;;16.80;82.90;;;;;;4900284;29;20076;-76
2022/10/24 05:36:17;;;;;;;15.13;2.05;;;16.80;83.10;;;;;;4902205;29;20040;-74
2022/10/24 05:38:43;;;;;;;8.82;1.75;;;16.80;83.20;;;;;;4885277;29;20128;-76
2022/10/24 05:41:08;;;;;;;12.90;2.10;;;16.90;83.30;;;;;;4901297;29;20052;-79
2022/10/24 05:43:34;;;;;;;9.02;1.77;;;16.90;83.60;;;;;;4901097;29;20201;-78
2022/10/24 05:46:00;;;;;;;5.68;1.05;;;16.90;83.80;;;;;;4900634;29;20469;-80
2022/10/24 05:48:25;;;;;;;8.18;1.50;;;16.80;81.20;;;;;;4884738;29;20365;-78
2022/10/24 05:50:56;;;;;;;8.70;1.40;;;16.80;79.60;;;;;;4900889;29;20048;-76
2022/10/24 05:53:22;;;;;;;5.95;1.40;;;16.70;78.90;;;;;;4900926;29;20434;-79
2022/10/24 05:55:47;;;;;;;7.13;1.65;;;16.80;79.00;;;;;;4901058;29;20131;-79
2022/10/24 05:58:13;;;;;;;8.63;1.67;;;16.70;79.20;;;;;;4901317;29;20128;-79
2022/10/24 06:00:39;;;;;;;8.75;1.60;;;16.70;79.70;;;;;;4900910;29;20060;-79
2022/10/24 06:03:05;;;;;;;15.25;1.70;;;16.70;80.30;;;;;;4900570;29;20530;-79
2022/10/24 06:05:30;;;;;;;11.00;2.47;;;16.80;80.70;;;;;;4884580;29;20053;-76
2022/10/24 06:07:58;;;;;;;15.07;2.55;;;16.80;81.00;;;;;;4900912;29;20064;-79
2022/10/24 06:10:24;;;;;;;18.20;3.55;;;16.80;81.20;;;;;;4901041;29;20473;-81
2022/10/24 06:12:49;;;;;;;9.48;2.60;;;16.80;81.20;;;;;;4900543;29;20193;-77
2022/10/24 06:15:15;;;;;;;10.88;2.30;;;16.90;81.30;;;;;;4901451;29;20052;-78
2022/10/24 06:17:41;;;;;;;12.25;3.25;;;16.90;81.30;;;;;;4901191;29;20142;-78
2022/10/24 06:20:07;;;;;;;12.00;2.30;;;16.90;81.20;;;;;;4884246;29;20135;-78
2022/10/24 06:22:33;;;;;;;9.45;2.15;;;16.90;81.10;;;;;;4884730;29;20334;-79
2022/10/24 06:24:59;;;;;;;13.70;3.35;;;16.90;81.00;;;;;;4900896;29;20048;-78
2022/10/24 06:27:25;;;;;;;10.70;2.45;;;16.90;81.00;;;;;;4900906;29;20369;-77
2022/10/24 06:29:51;;;;;;;11.32;2.92;;;16.90;80.90;;;;;;4883952;29;20055;-80
2022/10/24 06:32:16;;;;;;;13.52;2.95;;;16.90;80.80;;;;;;4900107;29;20040;-80
2022/10/24 06:34:42;;;;;;;7.53;2.40;;;16.90;80.80;;;;;;4869194;29;20390;-80
2022/10/24 06:37:08;;;;;;;7.35;2.63;;;16.90;80.80;;;;;;4884070;29;20056;-79
2022/10/24 06:39:33;;;;;;;11.45;2.70;;;16.90;80.70;;;;;;4884032;29;20054;-80
2022/10/24 06:42:00;;;;;;;9.80;2.67;;;16.90;80.70;;;;;;4900511;29;20123;-79
2022/10/24 06:44:26;;;;;;;9.98;3.05;;;16.90;80.60;;;;;;4883811;29;20048;-80
2022/10/24 06:46:52;;;;;;;10.40;2.92;;;16.90;80.60;;;;;;4900313;29;20055;-79
2022/10/24 06:49:18;;;;;;;9.73;2.45;;;16.90;80.50;;;;;;4900188;29;20406;-80
2022/10/24 06:51:43;;;;;;;6.03;2.08;;;16.90;80.50;;;;;;4900265;29;20449;-79
2022/10/24 06:54:10;;;;;;;8.02;2.38;;;16.90;80.50;;;;;;4900462;29;20056;-79
2022/10/24 06:56:35;;;;;;;9.75;2.45;;;16.90;80.40;;;;;;4900164;29;20052;-78
2022/10/24 06:59:01;;;;;;;5.25;2.15;;;16.90;80.40;;;;;;4868331;29;20068;-78
2022/10/24 07:01:27;;;;;;;4.35;1.90;;;16.90;80.40;;;;;;4883866;29;20052;-80
2022/10/24 07:03:53;;;;;;;4.63;2.00;;;16.90;80.40;;;;;;4868438;29;20056;-81
2022/10/24 07:06:26;;;;;;;6.53;2.58;;;16.90;80.30;;;;;;4900260;29;20048;-79
2022/10/24 07:08:54;;;;;;;5.73;2.03;;;17.00;80.40;;;;;;4883766;29;20163;-81
2022/10/24 07:11:21;;;;;;;6.95;2.60;;;16.90;80.30;;;;;;4897807;29;20067;-80
2022/10/24 07:13:47;;;;;;;6.25;2.17;;;16.90;80.30;;;;;;4881639;29;20454;-81
2022/10/24 07:16:13;;;;;;;7.97;2.35;;;16.90;80.30;;;;;;4881382;29;20093;-79
2022/10/24 07:18:39;;;;;;;5.55;2.00;;;16.90;80.20;;;;;;4881713;29;20049;-79
2022/10/24 07:21:08;;;;;;;5.93;2.15;;;16.90;80.20;;;;;;4881401;29;20057;-79
2022/10/24 07:23:34;;;;;;;4.70;2.25;;;16.90;80.20;;;;;;4864542;29;20351;-82
2022/10/24 07:26:12;;;;;;;11.10;1.95;;;16.90;80.20;;;;;;4880725;29;20735;-79
2022/10/24 07:28:39;;;;;;;5.50;1.92;;;16.90;80.20;;;;;;4881045;29;20061;-81
2022/10/24 07:31:05;;;;;;;6.15;2.15;;;16.90;80.20;;;;;;4868372;29;20465;-80
2022/10/24 07:33:31;;;;;;;10.40;2.47;;;16.90;80.20;;;;;;4872293;29;20076;-79
2022/10/24 07:35:57;;;;;;;13.30;3.22;;;16.90;80.20;;;;;;4881060;29;20045;-78
2022/10/24 07:38:23;;;;;;;4.93;1.70;;;16.90;80.10;;;;;;4863953;29;20064;-80
2022/10/24 07:40:49;;;;;;;6.60;2.22;;;16.90;80.20;;;;;;4880927;29;20060;-80
2022/10/24 07:43:16;;;;;;;5.78;1.58;;;17.00;80.20;;;;;;4875618;29;20048;-81
2022/10/24 07:45:43;;;;;;;9.77;2.63;;;17.00;80.20;;;;;;4903558;29;20044;-78
2022/10/24 07:48:09;;;;;;;3.55;1.42;;;17.00;80.20;;;;;;4903897;29;20049;-79
2022/10/24 07:50:42;;;;;;;14.65;2.45;;;17.00;80.30;;;;;;4903931;29;20378;-78
2022/10/24 07:53:09;;;;;;;10.95;1.88;;;17.00;80.40;;;;;;4894669;29;20067;-79
2022/10/24 07:55:37;;;;;;;13.07;2.35;;;17.00;80.40;;;;;;4868076;29;20129;-81
2022/10/24 07:58:03;;;;;;;9.35;2.15;;;17.00;80.30;;;;;;4884572;29;20053;-81
2022/10/24 08:00:29;;;;;;;6.82;1.67;;;17.00;80.30;;;;;;4868320;29;20074;-80
2022/10/24 08:02:57;;;;;;;5.38;1.90;;;17.00;80.20;;;;;;4899869;29;20044;-79
2022/10/24 08:05:23;;;;;;;7.95;1.73;;;17.00;80.10;;;;;;4903478;29;20057;-81
2022/10/24 08:07:49;;;;;;;6.28;1.95;;;17.00;80.10;;;;;;4903031;29;20435;-81
2022/10/24 08:10:15;;;;;;;9.13;0.90;;;17.00;79.90;;;;;;4903026;29;20048;-76
2022/10/24 08:12:41;;;;;;;7.35;1.45;;;17.00;77.90;;;;;;4873292;29;20437;-76
2022/10/24 08:15:07;;;;;;;7.72;1.85;;;16.90;76.40;;;;;;4884368;29;20041;-77
2022/10/24 08:17:35;;;;;;;7.32;1.15;;;16.90;76.50;;;;;;4885118;29;20049;-79
2022/10/24 08:20:02;;;;;;;9.00;1.23;;;16.80;77.30;;;;;;4884264;29;20089;-80
2022/10/24 08:22:28;;;;;;;10.18;1.20;;;16.80;77.80;;;;;;4894761;29;20120;-78
2022/10/24 08:24:54;;;;;;;10.15;2.25;;;16.90;78.20;;;;;;4902924;29;20048;-78
2022/10/24 08:27:19;;;;;;;9.65;1.85;;;16.80;78.40;;;;;;4886241;29;20052;-77
2022/10/24 08:29:45;;;;;;;7.53;1.70;;;16.90;78.50;;;;;;4884404;29;20140;-77
2022/10/24 08:32:11;;;;;;;7.53;1.33;;;16.90;78.60;;;;;;4867813;29;20423;-76
2022/10/24 08:34:37;;;;;;;9.13;1.70;;;16.90;78.70;;;;;;4884019;29;20048;-78
2022/10/24 08:37:03;;;;;;;18.60;2.50;;;16.90;78.80;;;;;;4897113;29;20135;-79
2022/10/24 08:39:29;;;;;;;10.75;1.75;;;16.90;79.10;;;;;;4870207;29;20140;-79
2022/10/24 08:42:00;;;;;;;5.18;1.55;;;16.90;79.10;;;;;;4902502;29;20123;-80
2022/10/24 08:44:30;;;;;;;8.50;1.70;;;17.00;79.30;;;;;;4902841;29;20056;-80
2022/10/24 08:47:05;;;;;;;6.50;1.23;;;17.00;79.30;;;;;;4889906;29;20093;-79
2022/10/24 08:49:42;;;;;;;13.82;1.90;;;17.00;79.30;;;;;;4883995;29;20044;-81
2022/10/24 08:52:29;;;;;;;7.38;1.00;;;17.00;79.20;;;;;;4884143;29;20418;-79
2022/10/24 08:54:59;;;;;;;9.70;2.15;;;17.00;79.30;;;;;;4882656;29;20069;-78
2022/10/24 08:57:32;;;;;;;7.15;1.60;;;17.00;79.50;;;;;;4882532;29;20052;-78
2022/10/24 09:00:06;;;;;;;9.90;1.27;;;17.00;79.60;;;;;;4902698;29;20123;-79
2022/10/24 09:02:36;;;;;;;11.60;1.33;;;17.00;79.70;;;;;;4902127;29;20085;-79
2022/10/24 09:05:25;;;;;;;6.00;0.80;;;17.00;79.70;;;;;;4900072;29;20097;-81
2022/10/24 09:08:19;;;;;;;7.13;1.65;;;17.00;79.80;;;;;;4866122;29;20124;-85
2022/10/24 09:10:57;;;;;;;15.57;1.42;;;17.10;79.90;;;;;;4857094;29;20048;-79
2022/10/24 09:13:26;;;;;;;5.95;1.05;;;17.10;80.00;;;;;;4902226;29;20048;-78
2022/10/24 09:15:53;;;;;;;10.00;1.17;;;17.10;79.90;;;;;;4890319;29;20052;-79
2022/10/24 09:18:25;;;;;;;7.85;1.30;;;17.10;80.10;;;;;;4898751;29;20124;-78
2022/10/24 09:20:52;;;;;;;12.02;1.40;;;17.10;80.10;;;;;;4885218;29;20080;-79
2022/10/24 09:23:20;;;;;;;5.32;1.40;;;17.10;80.00;;;;;;4902096;29;20064;-79
2022/10/24 09:25:55;;;;;;;8.13;1.30;;;17.10;79.90;;;;;;4901959;29;20124;-77
2022/10/24 09:28:22;;;;;;;13.98;1.65;;;17.10;79.90;;;;;;4883078;29;20053;-77
2022/10/24 09:30:48;;;;;;;17.17;2.25;;;17.10;79.90;;;;;;4882675;29;20063;-78
2022/10/24 09:33:30;;;;;;;7.15;1.15;;;17.10;79.80;;;;;;4883012;29;20127;-79
2022/10/24 09:36:03;;;;;;;7.07;1.48;;;17.10;79.90;;;;;;4883146;29;20099;-78
2022/10/24 09:38:34;;;;;;;12.02;1.25;;;17.10;79.80;;;;;;4901692;29;20056;-78
2022/10/24 09:41:06;;;;;;;7.50;1.90;;;17.10;79.80;;;;;;4901590;29;20063;-78
2022/10/24 09:43:47;;;;;;;7.80;1.27;;;17.10;79.80;;;;;;4901600;29;20107;-78
2022/10/24 09:46:17;;;;;;;4.43;0.82;;;17.10;79.70;;;;;;4883380;29;20048;-78
2022/10/24 09:49:01;;;;;;;7.32;1.67;;;17.10;79.70;;;;;;4866506;29;20053;-78
2022/10/24 09:52:05;;;;;;;7.97;1.00;;;17.10;79.60;;;;;;4867205;29;20143;-78
2022/10/24 09:54:33;;;;;;;4.05;0.70;;;17.10;79.60;;;;;;4865633;29;20052;-79
2022/10/24 09:57:11;;;;;;;4.35;0.88;;;17.10;79.70;;;;;;4872897;29;20127;-79
2022/10/24 09:59:42;;;;;;;7.40;1.58;;;17.10;79.60;;;;;;4901440;29;20354;-77
2022/10/24 10:02:33;;;;;;;6.85;0.95;;;17.10;79.60;;;;;;4889923;29;20502;-78
2022/10/24 10:05:01;;;;;;;2.58;0.70;;;17.10;80.10;;;;;;4881896;29;20446;-79
2022/10/24 10:07:30;;;;;;;5.80;1.25;;;17.10;79.60;;;;;;4882202;29;20045;-77
2022/10/24 10:09:58;;;;;;;3.72;0.70;;;17.10;79.50;;;;;;4882262;29;20049;-78
2022/10/24 10:12:36;;;;;;;5.18;1.13;;;17.10;79.50;;;;;;4894270;29;20081;-78
2022/10/24 10:15:34;;;;;;;3.97;0.85;;;17.10;79.50;;;;;;4883945;29;20085;-78
2022/10/24 10:18:04;;;;;;;6.57;0.80;;;17.10;79.50;;;;;;4900848;29;20134;-78
2022/10/24 10:20:36;;;;;;;4.88;1.02;;;17.10;79.50;;;;;;4899181;29;20374;-77
2022/10/24 10:23:23;;;;;;;6.03;0.77;;;17.10;79.50;;;;;;4900658;29;20493;-79
2022/10/24 10:25:59;;;;;;;3.90;1.05;;;17.20;79.50;;;;;;4900765;29;20401;-78
2022/10/24 10:28:25;;;;;;;3.65;0.70;;;17.10;79.50;;;;;;4901276;29;20066;-77
2022/10/24 10:30:57;;;;;;;6.68;1.10;;;17.10;79.50;;;;;;4867567;29;20398;-78
2022/10/24 10:33:37;;;;;;;3.15;0.65;;;17.20;79.50;;;;;;4881847;29;20045;-77
2022/10/24 10:36:16;;;;;;;5.63;0.80;;;17.20;79.50;;;;;;4881486;29;20135;-79
2022/10/24 10:39:00;;;;;;;6.63;1.15;;;17.10;79.50;;;;;;4865101;29;20504;-83
2022/10/24 10:41:35;;;;;;;3.40;0.68;;;17.20;79.60;;;;;;4863273;29;20041;-81
2022/10/24 10:44:27;;;;;;;5.32;1.00;;;17.20;79.60;;;;;;4863246;29;20073;-80
2022/10/24 10:47:25;;;;;;;9.07;0.93;;;17.20;79.70;;;;;;4863373;29;20047;-79
2022/10/24 10:49:56;;;;;;;5.43;1.17;;;17.20;79.80;;;;;;4866138;29;20143;-77
2022/10/24 10:52:32;;;;;;;11.70;2.20;;;17.10;79.50;;;;;;4865464;29;20057;-80
2022/10/24 10:55:23;;;;;;;12.18;2.80;;;17.20;79.30;;;;;;4881603;29;20202;-78
2022/10/24 10:58:11;;;;;;;9.68;3.05;;;17.20;79.10;;;;;;4884385;29;20068;-77
2022/10/24 11:00:57;;;;;;;11.48;2.47;;;17.20;79.10;;;;;;4892088;29;20362;-79
2022/10/24 11:03:33;;;;;;;9.43;2.08;;;17.20;79.10;;;;;;4873801;29;20477;-79
2022/10/24 11:06:14;;;;;;;10.63;2.33;;;17.10;79.10;;;;;;4900250;29;20056;-78
2022/10/24 11:08:52;;;;;;;13.82;2.85;;;17.10;79.10;;;;;;4891388;29;20051;-79
2022/10/24 11:11:23;;;;;;;12.38;2.85;;;17.10;79.20;;;;;;4864932;29;20506;-78
2022/10/24 11:13:57;;;;;;;7.75;2.20;;;17.10;79.40;;;;;;4881312;29;20093;-79
2022/10/24 11:16:28;;;;;;;9.95;2.08;;;17.10;79.50;;;;;;4878447;29;20056;-77
2022/10/24 11:19:03;;;;;;;11.88;2.75;;;17.10;79.60;;;;;;4882931;29;20049;-78
2022/10/24 11:21:32;;;;;;;10.48;2.28;;;17.10;79.60;;;;;;4859233;29;20094;-82
2022/10/24 11:24:22;;;;;;;9.10;2.35;;;17.10;79.60;;;;;;4846299;29;20049;-78
2022/10/24 11:26:54;;;;;;;8.20;1.88;;;17.20;79.50;;;;;;4862732;29;20053;-77
2022/10/24 11:29:54;;;;;;;8.88;1.80;;;17.20;79.60;;;;;;4881287;29;20049;-77
2022/10/24 11:32:41;;;;;;;7.03;1.83;;;17.20;79.60;;;;;;4881514;29;20065;-79
2022/10/24 11:35:25;;;;;;;10.77;2.05;;;17.20;79.70;;;;;;4877531;29;20102;-78
2022/10/24 11:37:57;;;;;;;8.35;2.13;;;17.20;79.60;;;;;;4846400;29;20407;-76
2022/10/24 11:40:26;;;;;;;9.70;2.47;;;17.20;79.70;;;;;;4847009;29;20104;-77
2022/10/24 11:43:09;;;;;;;6.10;1.40;;;17.20;79.60;;;;;;4862457;29;20121;-77
2022/10/24 11:45:50;;;;;;;8.80;2.10;;;17.20;79.60;;;;;;4868629;29;20351;-76
2022/10/24 11:48:28;;;;;;;10.30;1.85;;;17.20;79.60;;;;;;4881158;29;20048;-78
2022/10/24 11:51:36;;;;;;;7.43;1.77;;;17.20;79.70;;;;;;4880629;29;20476;-78
2022/10/24 11:54:43;;;;;;;4.75;1.45;;;17.20;79.60;;;;;;4881083;29;20041;-77
2022/10/24 11:57:18;;;;;;;10.30;1.73;;;17.20;79.70;;;;;;4787818;29;20204;-78
2022/10/24 11:59:44;;;;;;;9.05;2.20;;;17.20;79.70;;;;;;4774650;29;20653;-77
2022/10/24 12:02:39;;;;;;;9.40;1.60;;;17.20;79.60;;;;;;4845217;29;20169;-76
2022/10/24 12:05:22;;;;;;;9.70;2.13;;;17.20;79.60;;;;;;4881716;29;20060;-76
2022/10/24 12:08:00;;;;;;;7.85;2.05;;;17.20;79.60;;;;;;4880948;29;20382;-77
2022/10/24 12:10:48;;;;;;;6.80;1.30;;;17.20;79.60;;;;;;4880838;29;20065;-77
2022/10/24 12:13:40;;;;;;;8.27;2.03;;;17.20;79.60;;;;;;4834064;29;20049;-76
2022/10/24 12:16:31;;;;;;;5.82;1.48;;;17.20;79.50;;;;;;4861861;29;20459;-76
2022/10/24 12:19:01;;;;;;;6.22;1.33;;;17.20;79.60;;;;;;4862770;29;20081;-76
2022/10/24 12:21:38;;;;;;;7.22;1.27;;;17.20;79.60;;;;;;4881658;29;20052;-78
2022/10/24 12:24:05;;;;;;;4.13;1.15;;;17.20;79.60;;;;;;4899404;29;20048;-77
2022/10/24 12:26:34;;;;;;;7.22;2.05;;;17.20;79.60;;;;;;4898885;29;20088;-78
2022/10/24 12:29:19;;;;;;;6.53;1.20;;;17.20;79.60;;;;;;4900537;29;20044;-76
2022/10/24 12:31:45;;;;;;;9.55;1.58;;;17.20;79.50;;;;;;4899471;29;20378;-77
2022/10/24 12:34:17;;;;;;;4.30;1.17;;;17.20;79.50;;;;;;4884168;29;20060;-76
2022/10/24 12:37:04;;;;;;;8.65;1.27;;;17.20;79.50;;;;;;4867735;29;20485;-77
2022/10/24 12:39:33;;;;;;;6.55;1.08;;;17.20;79.40;;;;;;4867610;29;20197;-75
2022/10/24 12:41:59;;;;;;;9.20;2.22;;;17.30;78.00;;;;;;4888526;29;20049;-75
2022/10/24 12:44:33;;;;;;;7.60;1.63;;;17.30;77.30;;;;;;4903311;29;20056;-75
2022/10/24 12:47:15;;;;;;;6.05;1.35;;;17.20;77.30;;;;;;4902792;29;20048;-77
2022/10/24 12:49:41;;;;;;;6.07;1.27;;;17.20;77.60;;;;;;4886022;29;20064;-75
2022/10/24 12:52:39;;;;;;;10.85;1.60;;;17.10;77.90;;;;;;4896657;29;20041;-75
2022/10/24 12:55:29;;;;;;;11.60;1.75;;;17.10;78.20;;;;;;4846890;29;20127;-76
2022/10/24 12:57:55;;;;;;;13.10;2.17;;;17.10;78.50;;;;;;4884232;29;20080;-76
2022/10/24 13:00:30;;;;;;;11.25;2.05;;;17.10;78.70;;;;;;4883384;29;20579;-77
2022/10/24 13:03:18;;;;;;;11.50;1.88;;;17.10;78.70;;;;;;4894238;29;20111;-76
2022/10/24 13:06:09;;;;;;;8.20;1.10;;;17.10;78.80;;;;;;4902639;29;20068;-75
2022/10/24 13:09:06;;;;;;;6.75;1.17;;;17.10;78.80;;;;;;4902462;29;20049;-76
2022/10/24 13:11:48;;;;;;;9.30;1.73;;;17.20;78.90;;;;;;4893124;29;20049;-75
2022/10/24 13:14:17;;;;;;;6.80;1.10;;;17.20;79.00;;;;;;4883536;29;20049;-77
2022/10/24 13:17:11;;;;;;;10.73;1.30;;;17.20;79.00;;;;;;4883181;29;20049;-75
2022/10/24 13:19:37;;;;;;;13.18;1.45;;;17.20;79.00;;;;;;4861137;29;20121;-76
2022/10/24 13:22:02;;;;;;;5.57;1.00;;;17.20;79.00;;;;;;4878332;29;20479;-79
2022/10/24 13:24:33;;;;;;;8.30;1.50;;;17.20;79.00;;;;;;4857364;29;20065;-77
2022/10/24 13:27:05;;;;;;;10.82;1.85;;;17.20;79.10;;;;;;4874107;29;20045;-75
2022/10/24 13:29:32;;;;;;;7.88;1.17;;;17.20;79.10;;;;;;4879955;29;20057;-76
2022/10/24 13:32:04;;;;;;;10.30;2.05;;;17.20;79.20;;;;;;4863999;29;20132;-79
2022/10/24 13:34:42;;;;;;;11.18;1.45;;;17.20;79.20;;;;;;4864396;29;20049;-76
2022/10/24 13:37:13;;;;;;;9.07;1.15;;;17.20;79.20;;;;;;4847726;29;20527;-75
2022/10/24 13:39:47;;;;;;;12.52;1.60;;;17.30;79.30;;;;;;4859174;29;20505;-76
2022/10/24 13:42:24;;;;;;;5.88;1.20;;;17.30;79.30;;;;;;4860940;29;20049;-76
2022/10/24 13:44:54;;;;;;;7.00;1.30;;;17.30;79.30;;;;;;4856762;29;20081;-75
2022/10/24 13:47:30;;;;;;;11.88;1.75;;;17.30;79.30;;;;;;4873698;29;20045;-79
2022/10/24 13:50:28;;;;;;;9.23;1.08;;;17.30;79.40;;;;;;4863092;29;20057;-77
2022/10/24 13:52:58;;;;;;;6.32;1.30;;;17.30;79.30;;;;;;4856131;29;20058;-78
2022/10/24 13:55:41;;;;;;;11.10;1.33;;;17.30;79.40;;;;;;4864063;29;20041;-78
2022/10/24 13:58:16;;;;;;;8.35;1.10;;;17.30;79.50;;;;;;4859461;29;20050;-76
2022/10/24 14:00:45;;;;;;;6.97;1.50;;;17.30;79.60;;;;;;4845091;29;20061;-74
2022/10/24 14:03:18;;;;;;;5.25;0.95;;;17.30;79.60;;;;;;4863844;29;20053;-75
2022/10/24 14:05:53;;;;;;;7.22;1.40;;;17.30;79.60;;;;;;4863686;29;20064;-79
2022/10/24 14:08:31;;;;;;;10.18;1.33;;;17.30;79.50;;;;;;4863987;29;20054;-78
2022/10/24 14:11:00;;;;;;;11.10;1.55;;;17.30;79.30;;;;;;4862987;29;20057;-80
2022/10/24 14:13:29;;;;;;;10.93;1.48;;;17.30;79.30;;;;;;4863138;29;20057;-77
2022/10/24 14:16:02;;;;;;;15.68;1.58;;;17.30;79.30;;;;;;4878489;29;20053;-75
2022/10/24 14:18:29;;;;;;;8.60;1.77;;;17.30;79.30;;;;;;4847569;29;20049;-76
2022/10/24 14:21:00;;;;;;;9.52;1.90;;;17.30;79.30;;;;;;4877311;29;20061;-76
2022/10/24 14:23:34;;;;;;;9.25;1.40;;;17.30;79.30;;;;;;4881655;29;20052;-77
2022/10/24 14:26:05;;;;;;;9.43;1.52;;;17.30;79.30;;;;;;4881114;29;20072;-79
2022/10/24 14:28:44;;;;;;;12.35;2.15;;;17.30;79.30;;;;;;4892972;29;20090;-80
2022/10/24 14:31:23;;;;;;;13.40;2.05;;;17.40;78.80;;;;;;4882154;29;20080;-77
2022/10/24 14:33:52;;;;;;;8.82;2.13;;;17.40;78.40;;;;;;4881700;29;20045;-77
2022/10/24 14:36:21;;;;;;;14.85;2.40;;;17.30;78.20;;;;;;4881867;29;20128;-78
2022/10/24 14:38:49;;;;;;;6.15;2.00;;;17.30;78.00;;;;;;4881686;29;20049;-76
2022/10/24 14:41:21;;;;;;;13.52;2.08;;;17.30;77.90;;;;;;4865596;29;20102;-77
2022/10/24 14:43:47;;;;;;;8.82;1.83;;;17.20;77.90;;;;;;4865153;29;20363;-78
2022/10/24 14:46:16;;;;;;;6.07;1.90;;;17.20;78.30;;;;;;4883721;29;20048;-78
2022/10/24 14:48:44;;;;;;;8.25;1.65;;;17.10;78.50;;;;;;4900208;29;20044;-77
2022/10/24 14:51:20;;;;;;;9.05;1.73;;;17.10;78.60;;;;;;4900206;29;20059;-75
2022/10/24 14:53:48;;;;;;;10.30;1.80;;;17.10;78.90;;;;;;4899941;29;20063;-76
2022/10/24 14:56:35;;;;;;;10.30;2.13;;;17.10;79.30;;;;;;4898183;29;20155;-79
2022/10/24 14:59:06;;;;;;;8.43;2.08;;;17.20;80.60;;;;;;4881338;29;20075;-78
2022/10/24 15:01:32;;;;;;;9.63;2.08;;;17.20;80.00;;;;;;4881410;29;20049;-79
2022/10/24 15:04:00;;;;;;;8.18;1.85;;;17.20;80.20;;;;;;4881434;29;20059;-81
2022/10/24 15:06:37;;;;;;;9.85;1.95;;;17.20;80.60;;;;;;4884312;29;20025;-81
2022/10/24 15:09:09;;;;;;;9.57;2.22;;;17.20;80.50;;;;;;4899836;29;20045;-79
2022/10/24 15:11:42;;;;;;;9.80;2.00;;;17.20;80.00;;;;;;4899922;29;20048;-75
2022/10/24 15:14:34;;;;;;;11.65;2.33;;;17.20;79.70;;;;;;4900303;29;20151;-75
2022/10/24 15:17:17;;;;;;;16.63;2.08;;;17.10;79.40;;;;;;4891941;29;20474;-75
2022/10/24 15:19:45;;;;;;;11.65;2.42;;;17.10;79.60;;;;;;4880938;29;20084;-77
2022/10/24 15:22:25;;;;;;;11.20;2.17;;;17.10;79.70;;;;;;4881180;29;20099;-77
2022/10/24 15:24:56;;;;;;;12.70;2.13;;;17.10;80.10;;;;;;4881294;29;20132;-77
2022/10/24 15:27:43;;;;;;;12.35;2.00;;;17.20;80.40;;;;;;4889730;29;20044;-77
2022/10/24 15:30:19;;;;;;;14.68;1.80;;;17.20;80.90;;;;;;4899815;29;20060;-77
2022/10/24 15:32:46;;;;;;;12.27;2.22;;;17.20;81.20;;;;;;4899770;29;20048;-81
2022/10/24 15:35:13;;;;;;;14.20;1.58;;;17.20;81.40;;;;;;4883122;29;20166;-81
2022/10/24 15:37:39;;;;;;;13.27;2.33;;;17.20;81.60;;;;;;4888267;29;20041;-81
2022/10/24 15:40:15;;;;;;;14.75;2.83;;;17.20;81.80;;;;;;4881199;29;20041;-81
2022/10/24 15:42:41;;;;;;;15.15;2.35;;;17.20;82.00;;;;;;4880681;29;20049;-81
2022/10/24 15:45:14;;;;;;;14.02;2.67;;;17.20;82.10;;;;;;4849856;29;20053;-81
2022/10/24 15:47:39;;;;;;;12.33;2.27;;;17.30;82.20;;;;;;4890680;29;20461;-80
2022/10/24 15:50:06;;;;;;;16.15;1.83;;;17.30;82.20;;;;;;4882605;29;20045;-81
2022/10/24 15:52:32;;;;;;;11.10;1.80;;;17.30;82.30;;;;;;4894740;29;20041;-81
2022/10/24 15:54:59;;;;;;;15.02;2.03;;;17.30;82.30;;;;;;4864213;29;20113;-82
2022/10/24 15:57:25;;;;;;;13.63;2.17;;;17.30;82.20;;;;;;4864540;29;20056;-82
2022/10/24 15:59:50;;;;;;;12.23;1.67;;;17.30;82.20;;;;;;4848932;29;20049;-83
2022/10/24 16:02:21;;;;;;;12.55;2.08;;;17.30;82.10;;;;;;4858457;29;20100;-82
2022/10/24 16:04:48;;;;;;;14.23;2.55;;;17.30;81.90;;;;;;4886172;29;20131;-83
2022/10/24 16:07:14;;;;;;;10.07;1.52;;;17.30;81.80;;;;;;4886739;29;20041;-73
2022/10/24 16:09:40;;;;;;;11.77;1.42;;;17.40;81.70;;;;;;4886526;29;20497;-82
2022/10/24 16:12:06;;;;;;;6.53;1.27;;;17.40;81.40;;;;;;4894209;29;20123;-81
2022/10/24 16:14:31;;;;;;;8.88;1.38;;;17.30;81.20;;;;;;4867926;29;20522;-82
2022/10/24 16:17:00;;;;;;;13.90;2.20;;;17.40;81.00;;;;;;4868029;29;20084;-84
2022/10/24 16:19:26;;;;;;;9.48;1.98;;;17.40;79.70;;;;;;4885116;29;20080;-82
2022/10/24 16:21:57;;;;;;;11.70;2.13;;;17.40;78.80;;;;;;4868123;29;20056;-82
2022/10/24 16:24:26;;;;;;;10.75;1.92;;;17.30;78.10;;;;;;4883886;29;20462;-77
2022/10/24 16:26:51;;;;;;;8.65;1.55;;;17.30;78.10;;;;;;4883661;29;20049;-79
2022/10/24 17:52:50;;;;;;;6.35;1.40;;;17.30;79.00;;;;;;5860961;23;20278;-74
2022/10/24 17:55:24;;;;;;;7.63;1.77;;;17.30;78.80;;;;;;4854404;29;20382;-74
2022/10/24 17:57:50;;;;;;;10.73;1.65;;;17.30;78.80;;;;;;4864616;29;20502;-75
2022/10/24 18:00:16;;;;;;;13.07;2.22;;;17.30;78.80;;;;;;4864025;29;20089;-75
2022/10/24 18:02:51;;;;;;;11.85;2.00;;;17.30;78.80;;;;;;4864060;29;20088;-75
2022/10/24 18:05:18;;;;;;;12.70;2.22;;;17.30;78.70;;;;;;4863035;29;20128;-75
2022/10/24 18:07:45;;;;;;;12.88;2.83;;;17.30;78.10;;;;;;4864286;29;20050;-77
2022/10/24 18:10:11;;;;;;;15.50;2.00;;;17.30;77.50;;;;;;4863930;29;20156;-77
2022/10/24 18:12:39;;;;;;;13.85;2.35;;;17.20;77.40;;;;;;4863754;29;20049;-76
2022/10/24 18:15:07;;;;;;;11.02;2.28;;;17.10;77.40;;;;;;4863640;29;20399;-75
2022/10/24 18:17:33;;;;;;;10.43;3.00;;;17.10;77.30;;;;;;4863401;29;20064;-74
2022/10/24 18:19:59;;;;;;;12.57;2.78;;;17.00;77.40;;;;;;4863174;29;20049;-75
2022/10/24 18:22:25;;;;;;;8.90;2.67;;;16.90;77.50;;;;;;4863695;29;20081;-76
2022/10/24 18:24:50;;;;;;;13.13;2.60;;;16.90;77.60;;;;;;4862379;29;20109;-74
2022/10/24 18:27:16;;;;;;;11.73;2.10;;;16.80;77.80;;;;;;4862842;29;20053;-75
2022/10/24 18:29:43;;;;;;;10.30;2.55;;;16.80;78.10;;;;;;4862110;29;20046;-76
2022/10/24 18:32:12;;;;;;;8.02;2.10;;;16.80;78.20;;;;;;4863288;29;20092;-76
2022/10/24 18:34:38;;;;;;;9.10;1.95;;;16.80;78.30;;;;;;4864161;29;20053;-75
2022/10/24 18:37:04;;;;;;;12.85;1.65;;;16.80;78.30;;;;;;4862139;29;20073;-79
2022/10/24 18:39:30;;;;;;;11.50;1.88;;;16.90;78.50;;;;;;4846910;29;20045;-75
2022/10/24 18:41:59;;;;;;;15.98;2.47;;;16.90;78.60;;;;;;4862732;29;20109;-75
2022/10/24 18:44:32;;;;;;;10.50;2.15;;;16.90;78.60;;;;;;4863316;29;20364;-74
2022/10/24 18:47:04;;;;;;;10.55;1.88;;;16.90;78.70;;;;;;4861822;29;20120;-75
2022/10/24 18:49:32;;;;;;;7.97;2.03;;;17.00;78.70;;;;;;4863380;29;20355;-74
2022/10/24 18:52:25;;;;;;;7.97;1.50;;;17.00;78.70;;;;;;4861918;29;20068;-75
2022/10/24 18:55:10;;;;;;;8.82;1.55;;;17.00;78.60;;;;;;4864913;29;20120;-75
2022/10/24 18:57:36;;;;;;;9.15;2.38;;;17.00;78.60;;;;;;4882005;29;20057;-75
2022/10/24 19:00:04;;;;;;;6.30;1.52;;;17.00;78.60;;;;;;4881385;29;20041;-75
2022/10/24 19:02:36;;;;;;;6.95;1.55;;;17.10;78.60;;;;;;4881723;29;20193;-75
2022/10/24 19:05:18;;;;;;;8.80;1.50;;;17.10;78.60;;;;;;4881372;29;20477;-76
2022/10/24 19:07:47;;;;;;;8.27;2.05;;;17.10;78.60;;;;;;4881543;29;20059;-75
2022/10/24 19:10:20;;;;;;;6.70;1.75;;;17.10;78.60;;;;;;4881763;29;20125;-75
2022/10/24 19:12:46;;;;;;;7.47;1.75;;;17.10;78.50;;;;;;4881329;29;20065;-76
2022/10/24 19:15:13;;;;;;;5.65;1.83;;;17.10;78.50;;;;;;4881667;29;20059;-74
2022/10/24 19:17:39;;;;;;;9.00;1.70;;;17.10;78.50;;;;;;4881474;29;20474;-77
2022/10/24 19:20:05;;;;;;;6.13;1.45;;;17.20;78.50;;;;;;4881475;29;20370;-75
2022/10/24 19:22:31;;;;;;;7.25;1.17;;;17.20;78.50;;;;;;4882062;29;20384;-75
2022/10/24 19:24:57;;;;;;;7.50;1.25;;;17.20;78.50;;;;;;4881929;29;20120;-77
2022/10/24 19:27:24;;;;;;;5.18;1.65;;;17.20;78.50;;;;;;4881858;29;20056;-76
2022/10/24 19:29:49;;;;;;;8.25;1.52;;;17.20;78.50;;;;;;4881408;29;20096;-75
2022/10/24 19:32:15;;;;;;;7.45;1.33;;;17.20;78.50;;;;;;4881469;29;20113;-75
2022/10/24 19:34:41;;;;;;;4.68;1.27;;;17.20;78.50;;;;;;4881733;29;20465;-76
2022/10/24 19:37:07;;;;;;;4.50;1.05;;;17.20;78.50;;;;;;4881173;29;20053;-74
2022/10/24 19:39:32;;;;;;;5.65;1.50;;;17.20;78.40;;;;;;4883551;29;20049;-75
2022/10/24 19:41:58;;;;;;;5.07;1.17;;;17.20;78.40;;;;;;4885309;29;20064;-75
2022/10/24 19:44:24;;;;;;;7.18;1.95;;;17.20;78.40;;;;;;4885071;29;20052;-76
2022/10/24 19:46:49;;;;;;;4.35;1.25;;;17.30;78.50;;;;;;4885244;29;20465;-75
2022/10/24 19:49:15;;;;;;;7.55;1.70;;;17.20;78.40;;;;;;4884950;29;20049;-75